createdAt,value
2018-07-26T00:00:17.411Z,23.97
2018-07-26T00:00:39.178Z,23.97
2018-07-26T00:01:00.937Z,23.97
2018-07-26T00:01:22.733Z,23.97
2018-07-26T00:01:44.482Z,23.98
2018-07-26T00:02:06.243Z,23.97
2018-07-26T00:02:28.009Z,23.97
2018-07-26T00:02:49.784Z,23.97
2018-07-26T00:03:11.556Z,23.97
2018-07-26T00:03:33.427Z,23.96
2018-07-26T00:03:55.200Z,23.97
2018-07-26T00:04:16.995Z,23.98
2018-07-26T00:04:38.755Z,23.97
2018-07-26T00:05:00.511Z,23.97
2018-07-26T00:05:22.269Z,23.97
2018-07-26T00:05:44.027Z,23.97
2018-07-26T00:06:05.794Z,23.97
2018-07-26T00:06:27.563Z,23.97
2018-07-26T00:06:49.338Z,23.97
2018-07-26T00:07:11.097Z,23.96
2018-07-26T00:07:32.880Z,23.96
2018-07-26T00:07:54.646Z,23.98
2018-07-26T00:08:16.394Z,23.96
2018-07-26T00:08:38.238Z,23.97
2018-07-26T00:09:00.013Z,23.96
2018-07-26T00:09:21.832Z,23.97
2018-07-26T00:09:43.610Z,23.97
2018-07-26T00:10:05.370Z,23.97
2018-07-26T00:10:27.137Z,23.96
2018-07-26T00:10:48.900Z,23.97
2018-07-26T00:11:10.682Z,23.97
2018-07-26T00:11:32.464Z,23.97
2018-07-26T00:11:54.232Z,23.97
2018-07-26T00:12:16.053Z,23.96
2018-07-26T00:12:37.806Z,23.97
2018-07-26T00:12:59.587Z,23.97
2018-07-26T00:13:21.360Z,23.97
2018-07-26T00:13:43.144Z,23.97
2018-07-26T00:14:04.905Z,23.97
2018-07-26T00:14:26.685Z,23.97
2018-07-26T00:14:48.487Z,23.96
2018-07-26T00:15:10.260Z,23.96
2018-07-26T00:15:32.034Z,23.96
2018-07-26T00:15:53.821Z,23.97
2018-07-26T00:16:15.594Z,23.97
2018-07-26T00:16:37.400Z,23.96
2018-07-26T00:16:59.191Z,23.97
2018-07-26T00:17:20.964Z,23.96
2018-07-26T00:17:42.741Z,23.97
2018-07-26T00:18:04.510Z,23.96
2018-07-26T00:18:26.249Z,23.96
2018-07-26T00:18:48.071Z,23.96
2018-07-26T00:19:09.828Z,23.96
2018-07-26T00:19:31.604Z,23.96
2018-07-26T00:19:53.360Z,23.97
2018-07-26T00:20:15.169Z,23.95
2018-07-26T00:20:36.935Z,23.96
2018-07-26T00:20:58.704Z,23.97
2018-07-26T00:21:20.465Z,23.96
2018-07-26T00:21:42.262Z,23.96
2018-07-26T00:22:04.223Z,23.96
2018-07-26T00:22:25.984Z,23.96
2018-07-26T00:22:47.763Z,23.96
2018-07-26T00:23:09.519Z,23.96
2018-07-26T00:23:31.281Z,23.96
2018-07-26T00:23:53.105Z,23.96
2018-07-26T00:24:14.884Z,23.96
2018-07-26T00:24:36.982Z,23.96
2018-07-26T00:24:58.784Z,23.96
2018-07-26T00:25:20.643Z,23.97
2018-07-26T00:25:42.408Z,23.96
2018-07-26T00:26:04.200Z,23.96
2018-07-26T00:26:26.054Z,23.96
2018-07-26T00:26:47.826Z,23.97
2018-07-26T00:27:09.596Z,23.95
2018-07-26T00:27:31.387Z,23.96
2018-07-26T00:27:53.113Z,23.96
2018-07-26T00:28:14.871Z,23.95
2018-07-26T00:28:36.634Z,23.95
2018-07-26T00:28:58.447Z,23.96
2018-07-26T00:29:20.242Z,23.96
2018-07-26T00:29:42.062Z,23.97
2018-07-26T00:30:03.811Z,23.96
2018-07-26T00:30:25.578Z,23.96
2018-07-26T00:30:47.358Z,23.95
2018-07-26T00:31:09.134Z,23.96
2018-07-26T00:31:30.916Z,23.95
2018-07-26T00:31:52.715Z,23.96
2018-07-26T00:32:14.508Z,23.96
2018-07-26T00:32:36.274Z,23.96
2018-07-26T00:32:58.038Z,23.96
2018-07-26T00:33:19.815Z,23.96
2018-07-26T00:33:41.579Z,23.96
2018-07-26T00:34:03.389Z,23.95
2018-07-26T00:34:25.178Z,23.95
2018-07-26T00:34:46.944Z,23.96
2018-07-26T00:35:08.708Z,23.95
2018-07-26T00:35:30.490Z,23.96
2018-07-26T00:35:52.263Z,23.96
2018-07-26T00:36:14.015Z,23.95
2018-07-26T00:36:35.791Z,23.95
2018-07-26T00:36:57.558Z,23.97
2018-07-26T00:37:19.316Z,23.96
2018-07-26T00:37:41.113Z,23.97
2018-07-26T00:38:02.875Z,23.96
2018-07-26T00:38:24.647Z,23.96
2018-07-26T00:38:46.456Z,23.96
2018-07-26T00:39:08.577Z,23.96
2018-07-26T00:39:30.340Z,23.96
2018-07-26T00:39:52.107Z,23.96
2018-07-26T00:40:13.880Z,23.96
2018-07-26T00:40:35.777Z,23.97
2018-07-26T00:40:57.551Z,23.96
2018-07-26T00:41:19.343Z,23.96
2018-07-26T00:41:41.124Z,23.96
2018-07-26T00:42:02.904Z,23.96
2018-07-26T00:42:24.672Z,23.96
2018-07-26T00:42:46.428Z,23.95
2018-07-26T00:43:08.201Z,23.95
2018-07-26T00:43:29.956Z,23.96
2018-07-26T00:43:51.743Z,23.96
2018-07-26T00:44:13.519Z,23.96
2018-07-26T00:44:35.302Z,23.96
2018-07-26T00:44:57.088Z,23.96
2018-07-26T00:45:18.858Z,23.96
2018-07-26T00:45:40.620Z,23.95
2018-07-26T00:46:02.396Z,23.95
2018-07-26T00:46:24.183Z,23.96
2018-07-26T00:46:45.965Z,23.96
2018-07-26T00:47:07.735Z,23.96
2018-07-26T00:47:29.525Z,23.96
2018-07-26T00:47:51.280Z,23.96
2018-07-26T00:48:13.120Z,23.96
2018-07-26T00:48:34.892Z,23.95
2018-07-26T00:48:56.663Z,23.96
2018-07-26T00:49:18.463Z,23.96
2018-07-26T00:49:40.236Z,23.96
2018-07-26T00:50:01.998Z,23.96
2018-07-26T00:50:23.773Z,23.96
2018-07-26T00:50:45.557Z,23.97
2018-07-26T00:51:07.317Z,23.95
2018-07-26T00:51:29.083Z,23.96
2018-07-26T00:51:50.838Z,23.95
2018-07-26T00:52:12.828Z,23.96
2018-07-26T00:52:34.583Z,23.96
2018-07-26T00:52:56.380Z,23.96
2018-07-26T00:53:18.135Z,23.96
2018-07-26T00:53:39.901Z,23.96
2018-07-26T00:54:01.677Z,23.95
2018-07-26T00:54:23.456Z,23.95
2018-07-26T00:54:45.242Z,23.96
2018-07-26T00:55:06.995Z,23.95
2018-07-26T00:55:28.753Z,23.96
2018-07-26T00:55:50.523Z,23.95
2018-07-26T00:56:12.283Z,23.96
2018-07-26T00:56:34.024Z,23.96
2018-07-26T00:56:55.797Z,23.96
2018-07-26T00:57:17.570Z,23.96
2018-07-26T00:57:39.330Z,23.95
2018-07-26T00:58:01.089Z,23.95
2018-07-26T00:58:22.850Z,23.96
2018-07-26T00:58:44.599Z,23.95
2018-07-26T00:59:06.375Z,23.95
2018-07-26T00:59:28.176Z,23.95
2018-07-26T00:59:50.011Z,23.95
2018-07-26T01:00:11.774Z,23.95
2018-07-26T01:00:33.536Z,23.95
2018-07-26T01:00:55.300Z,23.95
2018-07-26T01:01:17.082Z,23.96
2018-07-26T01:01:38.854Z,23.96
2018-07-26T01:02:00.624Z,23.96
2018-07-26T01:02:22.388Z,23.95
2018-07-26T01:02:44.150Z,23.95
2018-07-26T01:03:05.927Z,23.96
2018-07-26T01:03:27.679Z,23.96
2018-07-26T01:03:49.467Z,23.95
2018-07-26T01:04:11.242Z,23.96
2018-07-26T01:04:33.036Z,23.95
2018-07-26T01:04:54.807Z,23.95
2018-07-26T01:05:16.561Z,23.95
2018-07-26T01:05:38.348Z,23.95
2018-07-26T01:06:00.121Z,23.95
2018-07-26T01:06:21.885Z,23.96
2018-07-26T01:06:43.659Z,23.95
2018-07-26T01:07:05.415Z,23.95
2018-07-26T01:07:27.184Z,23.96
2018-07-26T01:07:49.252Z,23.95
2018-07-26T01:08:11.043Z,23.96
2018-07-26T01:08:32.814Z,23.95
2018-07-26T01:08:54.577Z,23.95
2018-07-26T01:09:16.342Z,23.95
2018-07-26T01:09:38.217Z,23.96
2018-07-26T01:09:59.931Z,23.96
2018-07-26T01:10:21.692Z,23.96
2018-07-26T01:10:43.434Z,23.96
2018-07-26T01:11:05.182Z,23.95
2018-07-26T01:11:26.948Z,23.95
2018-07-26T01:11:48.718Z,23.94
2018-07-26T01:12:10.476Z,23.95
2018-07-26T01:12:32.230Z,23.95
2018-07-26T01:12:53.997Z,23.96
2018-07-26T01:13:15.763Z,23.96
2018-07-26T01:13:37.552Z,23.95
2018-07-26T01:13:59.308Z,23.96
2018-07-26T01:14:21.077Z,23.95
2018-07-26T01:14:42.819Z,23.94
2018-07-26T01:15:04.588Z,23.96
2018-07-26T01:15:26.384Z,23.95
2018-07-26T01:15:48.115Z,23.94
2018-07-26T01:16:09.867Z,23.95
2018-07-26T01:16:31.626Z,23.95
2018-07-26T01:16:54.124Z,23.95
2018-07-26T01:17:15.884Z,23.95
2018-07-26T01:17:37.664Z,23.96
2018-07-26T01:17:59.428Z,23.96
2018-07-26T01:18:21.215Z,23.95
2018-07-26T01:18:42.988Z,23.95
2018-07-26T01:19:05.012Z,23.95
2018-07-26T01:19:26.772Z,23.95
2018-07-26T01:19:48.542Z,23.95
2018-07-26T01:20:10.300Z,23.94
2018-07-26T01:20:32.076Z,23.95
2018-07-26T01:20:53.831Z,23.95
2018-07-26T01:21:15.600Z,23.95
2018-07-26T01:21:37.347Z,23.95
2018-07-26T01:21:59.087Z,23.95
2018-07-26T01:22:20.855Z,23.95
2018-07-26T01:22:42.623Z,23.95
2018-07-26T01:23:04.385Z,23.95
2018-07-26T01:23:26.140Z,23.95
2018-07-26T01:23:47.893Z,23.95
2018-07-26T01:24:09.649Z,23.95
2018-07-26T01:24:31.395Z,23.95
2018-07-26T01:24:53.162Z,23.95
2018-07-26T01:25:14.911Z,23.95
2018-07-26T01:25:36.663Z,23.95
2018-07-26T01:25:58.432Z,23.95
2018-07-26T01:26:20.191Z,23.95
2018-07-26T01:26:41.942Z,23.95
2018-07-26T01:27:03.799Z,23.94
2018-07-26T01:27:25.542Z,23.94
2018-07-26T01:27:47.294Z,23.95
2018-07-26T01:28:09.053Z,23.94
2018-07-26T01:28:30.802Z,23.94
2018-07-26T01:28:52.778Z,23.94
2018-07-26T01:29:14.533Z,23.95
2018-07-26T01:29:36.281Z,23.95
2018-07-26T01:29:58.284Z,23.95
2018-07-26T01:30:20.048Z,23.94
2018-07-26T01:30:41.810Z,23.95
2018-07-26T01:31:03.576Z,23.95
2018-07-26T01:31:25.314Z,23.95
2018-07-26T01:31:47.091Z,23.95
2018-07-26T01:32:08.846Z,23.95
2018-07-26T01:32:30.620Z,23.95
2018-07-26T01:32:52.376Z,23.95
2018-07-26T01:33:14.129Z,23.95
2018-07-26T01:33:35.887Z,23.94
2018-07-26T01:33:57.669Z,23.94
2018-07-26T01:34:19.510Z,23.94
2018-07-26T01:34:41.263Z,23.95
2018-07-26T01:35:03.047Z,23.94
2018-07-26T01:35:24.812Z,23.95
2018-07-26T01:35:46.663Z,23.95
2018-07-26T01:36:08.411Z,23.94
2018-07-26T01:36:30.176Z,23.94
2018-07-26T01:36:52.304Z,23.95
2018-07-26T01:37:14.060Z,23.95
2018-07-26T01:37:35.819Z,23.94
2018-07-26T01:37:57.574Z,23.94
2018-07-26T01:38:19.345Z,23.94
2018-07-26T01:38:41.108Z,23.95
2018-07-26T01:39:02.947Z,23.94
2018-07-26T01:39:24.714Z,23.94
2018-07-26T01:39:46.470Z,23.94
2018-07-26T01:40:08.255Z,23.95
2018-07-26T01:40:30.008Z,23.94
2018-07-26T01:40:51.756Z,23.94
2018-07-26T01:41:13.515Z,23.94
2018-07-26T01:41:35.274Z,23.94
2018-07-26T01:41:57.020Z,23.94
2018-07-26T01:42:18.788Z,23.95
2018-07-26T01:42:40.543Z,23.94
2018-07-26T01:43:02.301Z,23.94
2018-07-26T01:43:24.068Z,23.94
2018-07-26T01:43:46.933Z,23.94
2018-07-26T01:44:08.691Z,23.94
2018-07-26T01:44:30.448Z,23.94
2018-07-26T01:44:52.214Z,23.94
2018-07-26T01:45:14.003Z,23.95
2018-07-26T01:45:35.760Z,23.94
2018-07-26T01:45:57.539Z,23.94
2018-07-26T01:46:20.644Z,23.94
2018-07-26T01:46:42.394Z,23.94
2018-07-26T01:47:04.139Z,23.95
2018-07-26T01:47:25.897Z,23.95
2018-07-26T01:47:47.654Z,23.94
2018-07-26T01:48:09.455Z,23.94
2018-07-26T01:48:31.214Z,23.95
2018-07-26T01:48:52.992Z,23.94
2018-07-26T01:49:14.752Z,23.95
2018-07-26T01:49:36.505Z,23.94
2018-07-26T01:49:58.260Z,23.94
2018-07-26T01:50:20.074Z,23.94
2018-07-26T01:50:41.847Z,23.94
2018-07-26T01:51:03.595Z,23.94
2018-07-26T01:51:25.351Z,23.94
2018-07-26T01:51:47.163Z,23.94
2018-07-26T01:52:08.924Z,23.94
2018-07-26T01:52:30.694Z,23.94
2018-07-26T01:52:52.455Z,23.95
2018-07-26T01:53:14.213Z,23.94
2018-07-26T01:53:36.223Z,23.95
2018-07-26T01:53:57.972Z,23.94
2018-07-26T01:54:19.733Z,23.94
2018-07-26T01:54:41.504Z,23.94
2018-07-26T01:55:03.249Z,23.94
2018-07-26T01:55:25.067Z,23.94
2018-07-26T01:55:46.814Z,23.95
2018-07-26T01:56:09.547Z,23.94
2018-07-26T01:56:31.295Z,23.95
2018-07-26T01:56:53.055Z,23.94
2018-07-26T01:57:14.803Z,23.95
2018-07-26T01:57:36.576Z,23.93
2018-07-26T01:57:58.359Z,23.94
2018-07-26T01:58:20.128Z,23.94
2018-07-26T01:58:41.891Z,23.94
2018-07-26T01:59:03.642Z,23.94
2018-07-26T01:59:25.390Z,23.93
2018-07-26T01:59:47.147Z,23.93
2018-07-26T02:00:08.919Z,23.94
2018-07-26T02:00:30.705Z,23.95
2018-07-26T02:00:52.442Z,23.93
2018-07-26T02:01:14.385Z,23.94
2018-07-26T02:01:36.171Z,23.94
2018-07-26T02:01:57.905Z,23.94
2018-07-26T02:02:19.663Z,23.94
2018-07-26T02:02:41.420Z,23.94
2018-07-26T02:03:03.170Z,23.95
2018-07-26T02:03:25.147Z,23.94
2018-07-26T02:03:46.891Z,23.94
2018-07-26T02:04:08.635Z,23.94
2018-07-26T02:04:30.399Z,23.93
2018-07-26T02:04:52.168Z,23.93
2018-07-26T02:05:13.928Z,23.94
2018-07-26T02:05:35.737Z,23.94
2018-07-26T02:05:57.491Z,23.94
2018-07-26T02:06:19.272Z,23.94
2018-07-26T02:06:41.043Z,23.94
2018-07-26T02:07:02.800Z,23.94
2018-07-26T02:07:24.575Z,23.95
2018-07-26T02:07:46.323Z,23.93
2018-07-26T02:08:08.075Z,23.94
2018-07-26T02:08:29.823Z,23.93
2018-07-26T02:08:51.582Z,23.94
2018-07-26T02:09:13.330Z,23.94
2018-07-26T02:09:35.087Z,23.94
2018-07-26T02:09:56.832Z,23.94
2018-07-26T02:10:18.600Z,23.93
2018-07-26T02:10:40.383Z,23.94
2018-07-26T02:11:02.139Z,23.94
2018-07-26T02:11:23.909Z,23.93
2018-07-26T02:11:45.676Z,23.93
2018-07-26T02:12:07.440Z,23.94
2018-07-26T02:12:29.197Z,23.94
2018-07-26T02:12:50.992Z,23.94
2018-07-26T02:13:12.745Z,23.94
2018-07-26T02:13:34.823Z,23.93
2018-07-26T02:13:56.587Z,23.94
2018-07-26T02:14:23.804Z,23.93
2018-07-26T02:14:45.566Z,23.94
2018-07-26T02:15:07.330Z,23.92
2018-07-26T02:15:29.082Z,23.93
2018-07-26T02:15:51.027Z,23.93
2018-07-26T02:16:12.788Z,23.94
2018-07-26T02:16:34.573Z,23.94
2018-07-26T02:16:56.333Z,23.93
2018-07-26T02:17:18.092Z,23.94
2018-07-26T02:17:39.884Z,23.93
2018-07-26T02:18:01.656Z,23.93
2018-07-26T02:18:23.418Z,23.93
2018-07-26T02:18:45.176Z,23.93
2018-07-26T02:19:06.935Z,23.93
2018-07-26T02:19:28.674Z,23.94
2018-07-26T02:19:50.419Z,23.93
2018-07-26T02:20:12.175Z,23.93
2018-07-26T02:20:33.931Z,23.93
2018-07-26T02:20:55.758Z,23.93
2018-07-26T02:21:17.507Z,23.94
2018-07-26T02:21:39.277Z,23.93
2018-07-26T02:22:01.028Z,23.94
2018-07-26T02:22:22.781Z,23.92
2018-07-26T02:22:44.540Z,23.93
2018-07-26T02:23:06.307Z,23.93
2018-07-26T02:23:28.065Z,23.93
2018-07-26T02:23:49.810Z,23.93
2018-07-26T02:24:11.562Z,23.93
2018-07-26T02:24:33.323Z,23.93
2018-07-26T02:24:55.080Z,23.94
2018-07-26T02:25:16.834Z,23.92
2018-07-26T02:25:38.610Z,23.92
2018-07-26T02:26:00.383Z,23.93
2018-07-26T02:26:22.179Z,23.94
2018-07-26T02:26:43.948Z,23.94
2018-07-26T02:27:05.716Z,23.93
2018-07-26T02:27:27.479Z,23.94
2018-07-26T02:27:49.295Z,23.93
2018-07-26T02:28:11.363Z,23.93
2018-07-26T02:28:33.116Z,23.93
2018-07-26T02:28:56.008Z,23.93
2018-07-26T02:29:17.802Z,23.93
2018-07-26T02:29:39.574Z,23.93
2018-07-26T02:30:01.337Z,23.93
2018-07-26T02:30:23.113Z,23.93
2018-07-26T02:30:45.571Z,23.94
2018-07-26T02:31:07.478Z,23.94
2018-07-26T02:31:29.156Z,23.93
2018-07-26T02:31:50.915Z,23.93
2018-07-26T02:32:12.680Z,23.93
2018-07-26T02:32:34.438Z,23.94
2018-07-26T02:32:56.191Z,23.93
2018-07-26T02:33:17.951Z,23.93
2018-07-26T02:33:39.708Z,23.92
2018-07-26T02:34:01.464Z,23.94
2018-07-26T02:34:23.219Z,23.93
2018-07-26T02:34:44.978Z,23.93
2018-07-26T02:35:06.742Z,23.93
2018-07-26T02:35:28.483Z,23.93
2018-07-26T02:35:50.260Z,23.93
2018-07-26T02:36:12.063Z,23.93
2018-07-26T02:36:33.841Z,23.93
2018-07-26T02:36:55.666Z,23.93
2018-07-26T02:37:17.371Z,23.93
2018-07-26T02:37:39.128Z,23.93
2018-07-26T02:38:00.893Z,23.92
2018-07-26T02:38:22.668Z,23.94
2018-07-26T02:38:44.439Z,23.93
2018-07-26T02:39:06.207Z,23.93
2018-07-26T02:39:27.958Z,23.94
2018-07-26T02:39:49.713Z,23.93
2018-07-26T02:40:11.489Z,23.93
2018-07-26T02:40:33.265Z,23.93
2018-07-26T02:40:55.039Z,23.93
2018-07-26T02:41:16.825Z,23.94
2018-07-26T02:41:38.883Z,23.93
2018-07-26T02:42:00.647Z,23.92
2018-07-26T02:42:22.421Z,23.93
2018-07-26T02:42:44.247Z,23.93
2018-07-26T02:43:06.007Z,23.93
2018-07-26T02:43:27.758Z,23.93
2018-07-26T02:43:49.515Z,23.92
2018-07-26T02:44:11.296Z,23.92
2018-07-26T02:44:33.051Z,23.92
2018-07-26T02:44:54.820Z,23.93
2018-07-26T02:45:16.579Z,23.93
2018-07-26T02:45:38.340Z,23.92
2018-07-26T02:46:00.142Z,23.93
2018-07-26T02:46:21.946Z,23.93
2018-07-26T02:46:43.720Z,23.93
2018-07-26T02:47:05.479Z,23.92
2018-07-26T02:47:27.241Z,23.93
2018-07-26T02:47:49.022Z,23.94
2018-07-26T02:48:10.774Z,23.93
2018-07-26T02:48:32.532Z,23.94
2018-07-26T02:48:54.288Z,23.93
2018-07-26T02:49:16.045Z,23.93
2018-07-26T02:49:37.803Z,23.93
2018-07-26T02:49:59.581Z,23.94
2018-07-26T02:50:21.332Z,23.92
2018-07-26T02:50:43.092Z,23.92
2018-07-26T02:51:04.917Z,23.93
2018-07-26T02:51:26.704Z,23.93
2018-07-26T02:51:48.463Z,23.93
2018-07-26T02:52:10.229Z,23.92
2018-07-26T02:52:32.008Z,23.93
2018-07-26T02:52:53.809Z,23.93
2018-07-26T02:53:15.564Z,23.93
2018-07-26T02:53:37.314Z,23.93
2018-07-26T02:53:59.088Z,23.93
2018-07-26T02:54:20.848Z,23.93
2018-07-26T02:54:42.614Z,23.93
2018-07-26T02:55:04.376Z,23.92
2018-07-26T02:55:26.141Z,23.92
2018-07-26T02:55:47.920Z,23.93
2018-07-26T02:56:09.671Z,23.92
2018-07-26T02:56:31.463Z,23.94
2018-07-26T02:56:53.228Z,23.93
2018-07-26T02:57:14.971Z,23.93
2018-07-26T02:57:36.718Z,23.93
2018-07-26T02:57:58.488Z,23.93
2018-07-26T02:58:20.239Z,23.92
2018-07-26T02:58:42.009Z,23.93
2018-07-26T02:59:03.785Z,23.94
2018-07-26T02:59:25.557Z,23.92
2018-07-26T02:59:47.311Z,23.93
2018-07-26T03:00:09.582Z,23.93
2018-07-26T03:00:31.354Z,23.92
2018-07-26T03:00:53.128Z,23.93
2018-07-26T03:01:14.901Z,23.92
2018-07-26T03:01:36.702Z,23.93
2018-07-26T03:01:58.468Z,23.93
2018-07-26T03:02:20.228Z,23.93
2018-07-26T03:02:42.029Z,23.93
2018-07-26T03:03:03.811Z,23.92
2018-07-26T03:03:25.567Z,23.93
2018-07-26T03:03:47.331Z,23.92
2018-07-26T03:04:09.092Z,23.93
2018-07-26T03:04:30.850Z,23.93
2018-07-26T03:04:52.600Z,23.93
2018-07-26T03:05:14.359Z,23.92
2018-07-26T03:05:36.132Z,23.92
2018-07-26T03:05:57.896Z,23.92
2018-07-26T03:06:19.688Z,23.93
2018-07-26T03:06:41.473Z,23.93
2018-07-26T03:07:03.263Z,23.93
2018-07-26T03:07:25.043Z,23.92
2018-07-26T03:07:46.820Z,23.93
2018-07-26T03:08:08.577Z,23.92
2018-07-26T03:08:30.364Z,23.92
2018-07-26T03:08:52.113Z,23.92
2018-07-26T03:09:13.861Z,23.93
2018-07-26T03:09:35.631Z,23.93
2018-07-26T03:09:57.405Z,23.93
2018-07-26T03:10:19.176Z,23.93
2018-07-26T03:10:40.931Z,23.92
2018-07-26T03:11:02.703Z,23.93
2018-07-26T03:11:24.470Z,23.92
2018-07-26T03:11:46.236Z,23.93
2018-07-26T03:12:07.979Z,23.92
2018-07-26T03:12:29.775Z,23.92
2018-07-26T03:12:51.549Z,23.92
2018-07-26T03:13:13.305Z,23.92
2018-07-26T03:13:35.054Z,23.92
2018-07-26T03:13:56.815Z,23.92
2018-07-26T03:14:18.576Z,23.93
2018-07-26T03:14:44.926Z,23.92
2018-07-26T03:15:06.678Z,23.93
2018-07-26T03:15:28.437Z,23.94
2018-07-26T03:15:50.212Z,23.93
2018-07-26T03:16:11.964Z,23.92
2018-07-26T03:16:33.720Z,23.92
2018-07-26T03:16:55.497Z,23.92
2018-07-26T03:17:17.254Z,23.93
2018-07-26T03:17:39.013Z,23.92
2018-07-26T03:18:00.759Z,23.92
2018-07-26T03:18:22.541Z,23.92
2018-07-26T03:18:44.298Z,23.92
2018-07-26T03:19:06.061Z,23.92
2018-07-26T03:19:27.826Z,23.92
2018-07-26T03:19:49.575Z,23.92
2018-07-26T03:20:11.323Z,23.91
2018-07-26T03:20:33.084Z,23.92
2018-07-26T03:20:54.860Z,23.92
2018-07-26T03:21:16.620Z,23.92
2018-07-26T03:21:38.381Z,23.92
2018-07-26T03:22:00.150Z,23.92
2018-07-26T03:22:21.903Z,23.92
2018-07-26T03:22:43.660Z,23.92
2018-07-26T03:23:05.407Z,23.92
2018-07-26T03:23:27.186Z,23.93
2018-07-26T03:23:48.940Z,23.92
2018-07-26T03:24:10.708Z,23.92
2018-07-26T03:24:32.458Z,23.92
2018-07-26T03:24:54.227Z,23.91
2018-07-26T03:25:15.994Z,23.93
2018-07-26T03:25:37.789Z,23.93
2018-07-26T03:25:59.542Z,23.93
2018-07-26T03:26:21.629Z,23.92
2018-07-26T03:26:43.415Z,23.93
2018-07-26T03:27:05.198Z,23.92
2018-07-26T03:27:26.972Z,23.92
2018-07-26T03:27:48.788Z,23.92
2018-07-26T03:28:10.542Z,23.93
2018-07-26T03:28:32.310Z,23.92
2018-07-26T03:28:54.078Z,23.91
2018-07-26T03:29:15.930Z,23.92
2018-07-26T03:29:37.671Z,23.92
2018-07-26T03:29:59.440Z,23.92
2018-07-26T03:30:21.223Z,23.92
2018-07-26T03:30:43.166Z,23.92
2018-07-26T03:31:04.935Z,23.92
2018-07-26T03:31:26.686Z,23.92
2018-07-26T03:31:48.438Z,23.91
2018-07-26T03:32:10.460Z,23.91
2018-07-26T03:32:32.217Z,23.92
2018-07-26T03:32:53.987Z,23.92
2018-07-26T03:33:15.730Z,23.92
2018-07-26T03:33:37.501Z,23.91
2018-07-26T03:33:59.266Z,23.93
2018-07-26T03:34:21.034Z,23.91
2018-07-26T03:34:42.781Z,23.91
2018-07-26T03:35:04.552Z,23.91
2018-07-26T03:35:26.316Z,23.91
2018-07-26T03:35:48.079Z,23.92
2018-07-26T03:36:09.822Z,23.92
2018-07-26T03:36:31.593Z,23.92
2018-07-26T03:36:53.374Z,23.92
2018-07-26T03:37:15.208Z,23.91
2018-07-26T03:37:36.964Z,23.92
2018-07-26T03:37:58.744Z,23.92
2018-07-26T03:38:20.503Z,23.91
2018-07-26T03:38:42.416Z,23.91
2018-07-26T03:39:04.328Z,23.92
2018-07-26T03:39:26.099Z,23.92
2018-07-26T03:39:47.858Z,23.91
2018-07-26T03:40:09.617Z,23.92
2018-07-26T03:40:31.362Z,23.92
2018-07-26T03:40:53.106Z,23.92
2018-07-26T03:41:14.850Z,23.92
2018-07-26T03:41:36.599Z,23.91
2018-07-26T03:41:58.358Z,23.92
2018-07-26T03:42:20.160Z,23.92
2018-07-26T03:42:41.915Z,23.92
2018-07-26T03:43:03.685Z,23.92
2018-07-26T03:43:25.679Z,23.92
2018-07-26T03:43:47.411Z,23.92
2018-07-26T03:44:09.174Z,23.91
2018-07-26T03:44:30.926Z,23.92
2018-07-26T03:44:52.696Z,23.91
2018-07-26T03:45:14.467Z,23.92
2018-07-26T03:45:36.200Z,23.91
2018-07-26T03:45:57.958Z,23.91
2018-07-26T03:46:19.720Z,23.91
2018-07-26T03:46:41.483Z,23.91
2018-07-26T03:47:03.243Z,23.92
2018-07-26T03:47:25.037Z,23.91
2018-07-26T03:47:46.837Z,23.91
2018-07-26T03:48:08.599Z,23.92
2018-07-26T03:48:30.365Z,23.92
2018-07-26T03:48:52.159Z,23.92
2018-07-26T03:49:13.924Z,23.91
2018-07-26T03:49:35.683Z,23.92
2018-07-26T03:49:57.438Z,23.91
2018-07-26T03:50:19.195Z,23.91
2018-07-26T03:50:41.050Z,23.91
2018-07-26T03:51:02.844Z,23.92
2018-07-26T03:51:24.635Z,23.91
2018-07-26T03:51:46.371Z,23.92
2018-07-26T03:52:08.144Z,23.91
2018-07-26T03:52:29.923Z,23.92
2018-07-26T03:52:51.756Z,23.92
2018-07-26T03:53:13.472Z,23.92
2018-07-26T03:53:35.222Z,23.92
2018-07-26T03:53:56.976Z,23.91
2018-07-26T03:54:18.734Z,23.91
2018-07-26T03:54:40.502Z,23.92
2018-07-26T03:55:02.244Z,23.92
2018-07-26T03:55:24.008Z,23.92
2018-07-26T03:55:45.792Z,23.91
2018-07-26T03:56:07.552Z,23.92
2018-07-26T03:56:29.299Z,23.92
2018-07-26T03:56:51.075Z,23.91
2018-07-26T03:57:12.880Z,23.92
2018-07-26T03:57:34.664Z,23.92
2018-07-26T03:57:56.488Z,23.92
2018-07-26T03:58:18.204Z,23.92
2018-07-26T03:58:39.960Z,23.93
2018-07-26T03:59:01.780Z,23.92
2018-07-26T03:59:23.551Z,23.92
2018-07-26T03:59:45.301Z,23.91
2018-07-26T04:00:07.106Z,23.91
2018-07-26T04:00:28.858Z,23.92
2018-07-26T04:00:50.607Z,23.92
2018-07-26T04:01:12.371Z,23.92
2018-07-26T04:01:34.211Z,23.92
2018-07-26T04:01:55.968Z,23.92
2018-07-26T04:02:17.714Z,23.92
2018-07-26T04:02:39.507Z,23.93
2018-07-26T04:03:01.307Z,23.92
2018-07-26T04:03:23.089Z,23.92
2018-07-26T04:03:44.845Z,23.92
2018-07-26T04:04:06.621Z,23.91
2018-07-26T04:04:28.386Z,23.92
2018-07-26T04:04:50.147Z,23.92
2018-07-26T04:05:11.919Z,23.92
2018-07-26T04:05:33.718Z,23.93
2018-07-26T04:05:55.473Z,23.93
2018-07-26T04:06:17.232Z,23.92
2018-07-26T04:06:39.165Z,23.93
2018-07-26T04:07:00.918Z,23.92
2018-07-26T04:07:22.671Z,23.93
2018-07-26T04:07:44.463Z,23.93
2018-07-26T04:08:06.573Z,23.92
2018-07-26T04:08:28.327Z,23.93
2018-07-26T04:08:50.088Z,23.92
2018-07-26T04:09:13.556Z,23.93
2018-07-26T04:09:35.314Z,23.92
2018-07-26T04:09:57.083Z,23.92
2018-07-26T04:10:18.834Z,23.93
2018-07-26T04:10:40.598Z,23.92
2018-07-26T04:11:02.368Z,23.92
2018-07-26T04:11:24.124Z,23.93
2018-07-26T04:11:46.619Z,23.93
2018-07-26T04:12:08.370Z,23.92
2018-07-26T04:12:30.118Z,23.92
2018-07-26T04:12:51.907Z,23.93
2018-07-26T04:13:13.672Z,23.92
2018-07-26T04:13:35.432Z,23.93
2018-07-26T04:13:57.192Z,23.93
2018-07-26T04:14:18.951Z,23.92
2018-07-26T04:14:40.709Z,23.92
2018-07-26T04:15:02.452Z,23.93
2018-07-26T04:15:24.207Z,23.93
2018-07-26T04:15:45.968Z,23.92
2018-07-26T04:16:07.770Z,23.93
2018-07-26T04:16:29.510Z,23.92
2018-07-26T04:16:51.254Z,23.93
2018-07-26T04:17:13.007Z,23.92
2018-07-26T04:17:34.756Z,23.93
2018-07-26T04:18:02.804Z,23.93
2018-07-26T04:18:24.577Z,23.93
2018-07-26T04:18:46.344Z,23.92
2018-07-26T04:19:09.095Z,23.94
2018-07-26T04:19:30.840Z,23.92
2018-07-26T04:19:52.605Z,23.93
2018-07-26T04:20:14.376Z,23.92
2018-07-26T04:20:36.176Z,23.92
2018-07-26T04:20:57.938Z,23.92
2018-07-26T04:21:19.716Z,23.94
2018-07-26T04:21:41.674Z,23.92
2018-07-26T04:22:03.444Z,23.93
2018-07-26T04:22:25.250Z,23.93
2018-07-26T04:22:47.007Z,23.92
2018-07-26T04:23:08.780Z,23.94
2018-07-26T04:23:30.528Z,23.93
2018-07-26T04:23:52.271Z,23.92
2018-07-26T04:33:59.068Z,23.93
2018-07-26T04:34:20.832Z,23.93
2018-07-26T04:34:42.582Z,23.93
2018-07-26T04:35:04.356Z,23.93
2018-07-26T04:35:26.125Z,23.93
2018-07-26T04:35:48.010Z,23.92
2018-07-26T04:36:09.780Z,23.92
2018-07-26T04:36:31.548Z,23.93
2018-07-26T04:36:53.314Z,23.93
2018-07-26T04:37:15.089Z,23.93
2018-07-26T04:37:36.848Z,23.93
2018-07-26T04:37:58.602Z,23.93
2018-07-26T04:38:20.360Z,23.93
2018-07-26T04:38:42.143Z,23.93
2018-07-26T04:39:04.252Z,23.92
2018-07-26T04:39:26.017Z,23.94
2018-07-26T04:39:47.770Z,23.92
2018-07-26T04:40:09.553Z,23.93
2018-07-26T04:40:31.337Z,23.93
2018-07-26T04:40:53.137Z,23.93
2018-07-26T04:41:14.931Z,23.93
2018-07-26T04:41:36.987Z,23.93
2018-07-26T04:41:58.760Z,23.94
2018-07-26T04:42:20.579Z,23.94
2018-07-26T04:42:42.360Z,23.94
2018-07-26T04:43:04.138Z,23.93
2018-07-26T04:43:25.951Z,23.94
2018-07-26T04:43:47.729Z,23.93
2018-07-26T04:44:09.520Z,23.94
2018-07-26T04:44:31.301Z,23.94
2018-07-26T04:44:53.097Z,23.94
2018-07-26T04:45:14.884Z,23.94
2018-07-26T04:45:36.662Z,23.95
2018-07-26T04:45:58.415Z,23.94
2018-07-26T04:46:20.210Z,23.94
2018-07-26T04:46:41.969Z,23.94
2018-07-26T04:47:03.718Z,23.94
2018-07-26T04:47:25.543Z,23.94
2018-07-26T04:47:47.318Z,23.93
2018-07-26T04:48:09.178Z,23.94
2018-07-26T04:48:30.948Z,23.95
2018-07-26T04:48:52.781Z,23.94
2018-07-26T04:49:14.516Z,23.95
2018-07-26T04:49:36.312Z,23.95
2018-07-26T04:49:58.063Z,23.94
2018-07-26T04:50:19.838Z,23.94
2018-07-26T04:50:41.606Z,23.93